sensor_id;sensor_type;location;lat;lon;timestamp;temperature;humidity
53053;DHT22;38934;52.690;6.184;2024-01-11T00:02:22;-5.90;99.90
53053;DHT22;38934;52.690;6.184;2024-01-11T00:04:48;-5.90;99.90
53053;DHT22;38934;52.690;6.184;2024-01-11T00:07:13;-5.90;99.90
53053;DHT22;38934;52.690;6.184;2024-01-11T00:09:41;-5.90;99.90
53053;DHT22;38934;52.690;6.184;2024-01-11T00:12:07;-5.90;99.90
53053;DHT22;38934;52.690;6.184;2024-01-11T00:14:32;-5.90;99.90
53053;DHT22;38934;52.690;6.184;2024-01-11T00:16:58;-5.90;99.90
53053;DHT22;38934;52.690;6.184;2024-01-11T00:19:24;-6.00;99.90
53053;DHT22;38934;52.690;6.184;2024-01-11T00:21:49;-6.00;99.90
53053;DHT22;38934;52.690;6.184;2024-01-11T00:24:15;-6.00;99.90
53053;DHT22;38934;52.690;6.184;2024-01-11T00:26:41;-6.00;99.90
53053;DHT22;38934;52.690;6.184;2024-01-11T00:29:07;-6.00;99.90
53053;DHT22;38934;52.690;6.184;2024-01-11T00:31:33;-6.00;99.90
53053;DHT22;38934;52.690;6.184;2024-01-11T00:33:59;-6.10;99.90
53053;DHT22;38934;52.690;6.184;2024-01-11T00:36:24;-6.10;99.90
53053;DHT22;38934;52.690;6.184;2024-01-11T00:38:50;-6.10;99.90
53053;DHT22;38934;52.690;6.184;2024-01-11T00:41:16;-6.10;99.90
53053;DHT22;38934;52.690;6.184;2024-01-11T00:43:41;-6.20;99.90
53053;DHT22;38934;52.690;6.184;2024-01-11T00:46:07;-6.20;99.90
53053;DHT22;38934;52.690;6.184;2024-01-11T00:48:33;-6.20;99.90
53053;DHT22;38934;52.690;6.184;2024-01-11T00:50:58;-6.20;99.90
53053;DHT22;38934;52.690;6.184;2024-01-11T00:53:24;-6.20;99.90
53053;DHT22;38934;52.690;6.184;2024-01-11T00:55:51;-6.20;99.90
53053;DHT22;38934;52.690;6.184;2024-01-11T00:58:16;-6.20;99.90
53053;DHT22;38934;52.690;6.184;2024-01-11T01:00:42;-6.20;99.90
53053;DHT22;38934;52.690;6.184;2024-01-11T01:03:07;-6.20;99.90
53053;DHT22;38934;52.690;6.184;2024-01-11T01:05:33;-6.20;99.90
53053;DHT22;38934;52.690;6.184;2024-01-11T01:07:59;-6.20;99.90
53053;DHT22;38934;52.690;6.184;2024-01-11T01:10:24;-6.20;99.90
53053;DHT22;38934;52.690;6.184;2024-01-11T01:12:50;-6.20;99.90
53053;DHT22;38934;52.690;6.184;2024-01-11T01:15:15;-6.20;99.90
53053;DHT22;38934;52.690;6.184;2024-01-11T01:17:41;-6.20;99.90
53053;DHT22;38934;52.690;6.184;2024-01-11T01:20:07;-6.20;99.90
53053;DHT22;38934;52.690;6.184;2024-01-11T01:22:33;-6.20;99.90
53053;DHT22;38934;52.690;6.184;2024-01-11T01:24:58;-6.20;99.90
53053;DHT22;38934;52.690;6.184;2024-01-11T01:27:24;-6.30;99.90
53053;DHT22;38934;52.690;6.184;2024-01-11T01:29:49;-6.30;99.90
53053;DHT22;38934;52.690;6.184;2024-01-11T01:32:15;-6.30;99.90
53053;DHT22;38934;52.690;6.184;2024-01-11T01:34:41;-6.30;99.90
53053;DHT22;38934;52.690;6.184;2024-01-11T01:37:06;-6.30;99.90
53053;DHT22;38934;52.690;6.184;2024-01-11T01:39:32;-6.30;99.90
53053;DHT22;38934;52.690;6.184;2024-01-11T01:41:57;-6.40;99.90
53053;DHT22;38934;52.690;6.184;2024-01-11T01:44:23;-6.40;99.90
53053;DHT22;38934;52.690;6.184;2024-01-11T01:46:51;-6.40;99.90
53053;DHT22;38934;52.690;6.184;2024-01-11T01:49:16;-6.30;99.90
53053;DHT22;38934;52.690;6.184;2024-01-11T01:51:47;-6.40;99.90
53053;DHT22;38934;52.690;6.184;2024-01-11T01:54:13;-6.40;99.90
53053;DHT22;38934;52.690;6.184;2024-01-11T01:56:39;-6.30;99.90
53053;DHT22;38934;52.690;6.184;2024-01-11T01:59:05;-6.40;99.90
53053;DHT22;38934;52.690;6.184;2024-01-11T02:01:31;-6.40;99.90
53053;DHT22;38934;52.690;6.184;2024-01-11T02:03:59;-6.40;99.90
53053;DHT22;38934;52.690;6.184;2024-01-11T02:06:25;-6.30;99.90
53053;DHT22;38934;52.690;6.184;2024-01-11T02:08:52;-6.40;99.90
53053;DHT22;38934;52.690;6.184;2024-01-11T02:11:20;-6.40;99.90
53053;DHT22;38934;52.690;6.184;2024-01-11T02:13:46;-6.40;99.90
53053;DHT22;38934;52.690;6.184;2024-01-11T02:16:13;-6.40;99.90
53053;DHT22;38934;52.690;6.184;2024-01-11T02:18:39;-6.40;99.90
53053;DHT22;38934;52.690;6.184;2024-01-11T02:21:08;-6.50;99.90
53053;DHT22;38934;52.690;6.184;2024-01-11T02:23:36;-6.50;99.90
53053;DHT22;38934;52.690;6.184;2024-01-11T02:26:05;-6.50;99.90
53053;DHT22;38934;52.690;6.184;2024-01-11T02:28:31;-6.50;99.90
53053;DHT22;38934;52.690;6.184;2024-01-11T02:30:57;-6.50;99.90
53053;DHT22;38934;52.690;6.184;2024-01-11T02:33:22;-6.50;99.90
53053;DHT22;38934;52.690;6.184;2024-01-11T02:35:48;-6.50;99.90
53053;DHT22;38934;52.690;6.184;2024-01-11T02:38:14;-6.50;99.90
53053;DHT22;38934;52.690;6.184;2024-01-11T02:40:40;-6.30;99.90
53053;DHT22;38934;52.690;6.184;2024-01-11T02:43:12;-6.60;99.90
53053;DHT22;38934;52.690;6.184;2024-01-11T02:45:37;-6.60;99.90
53053;DHT22;38934;52.690;6.184;2024-01-11T02:48:03;-6.60;99.90
53053;DHT22;38934;52.690;6.184;2024-01-11T02:50:29;-6.60;99.90
53053;DHT22;38934;52.690;6.184;2024-01-11T02:52:54;-6.70;99.90
53053;DHT22;38934;52.690;6.184;2024-01-11T02:55:20;-6.70;99.90
53053;DHT22;38934;52.690;6.184;2024-01-11T02:57:46;-6.70;99.90
53053;DHT22;38934;52.690;6.184;2024-01-11T03:00:12;-6.70;99.90
53053;DHT22;38934;52.690;6.184;2024-01-11T03:02:38;-6.70;99.90
53053;DHT22;38934;52.690;6.184;2024-01-11T03:05:04;-6.70;99.90
53053;DHT22;38934;52.690;6.184;2024-01-11T03:07:29;-6.70;99.90
53053;DHT22;38934;52.690;6.184;2024-01-11T03:09:56;-6.70;99.90
53053;DHT22;38934;52.690;6.184;2024-01-11T03:12:21;-6.70;99.90
53053;DHT22;38934;52.690;6.184;2024-01-11T03:14:47;-6.70;99.90
53053;DHT22;38934;52.690;6.184;2024-01-11T03:17:13;-6.70;99.90
53053;DHT22;38934;52.690;6.184;2024-01-11T03:19:40;-6.70;99.90
53053;DHT22;38934;52.690;6.184;2024-01-11T03:22:06;-6.70;99.90
53053;DHT22;38934;52.690;6.184;2024-01-11T03:24:32;-6.70;99.90
53053;DHT22;38934;52.690;6.184;2024-01-11T03:26:58;-6.70;99.90
53053;DHT22;38934;52.690;6.184;2024-01-11T03:29:24;-6.70;99.90
53053;DHT22;38934;52.690;6.184;2024-01-11T03:31:49;-6.70;99.90
53053;DHT22;38934;52.690;6.184;2024-01-11T03:34:15;-6.70;99.90
53053;DHT22;38934;52.690;6.184;2024-01-11T03:36:40;-6.70;99.90
53053;DHT22;38934;52.690;6.184;2024-01-11T03:39:06;-6.60;99.90
53053;DHT22;38934;52.690;6.184;2024-01-11T03:41:32;-6.60;99.90
53053;DHT22;38934;52.690;6.184;2024-01-11T03:43:58;-6.60;99.90
53053;DHT22;38934;52.690;6.184;2024-01-11T03:46:23;-6.60;99.90
53053;DHT22;38934;52.690;6.184;2024-01-11T03:48:49;-6.60;99.90
53053;DHT22;38934;52.690;6.184;2024-01-11T03:51:15;-6.60;99.90
53053;DHT22;38934;52.690;6.184;2024-01-11T03:53:40;-6.50;99.90
53053;DHT22;38934;52.690;6.184;2024-01-11T03:56:06;-6.50;99.90
53053;DHT22;38934;52.690;6.184;2024-01-11T03:58:31;-6.50;99.90
53053;DHT22;38934;52.690;6.184;2024-01-11T04:00:58;-6.50;99.90
53053;DHT22;38934;52.690;6.184;2024-01-11T04:03:23;-6.50;99.90
53053;DHT22;38934;52.690;6.184;2024-01-11T04:05:49;-6.50;99.90
53053;DHT22;38934;52.690;6.184;2024-01-11T04:08:14;-6.50;99.90
53053;DHT22;38934;52.690;6.184;2024-01-11T04:10:40;-6.50;99.90
53053;DHT22;38934;52.690;6.184;2024-01-11T04:13:07;-6.50;99.90
53053;DHT22;38934;52.690;6.184;2024-01-11T04:15:32;-6.50;99.90
53053;DHT22;38934;52.690;6.184;2024-01-11T04:17:58;-6.50;99.90
53053;DHT22;38934;52.690;6.184;2024-01-11T04:20:24;-6.50;99.90
53053;DHT22;38934;52.690;6.184;2024-01-11T04:22:49;-6.60;99.90
53053;DHT22;38934;52.690;6.184;2024-01-11T04:25:15;-6.60;99.90
53053;DHT22;38934;52.690;6.184;2024-01-11T04:27:41;-6.60;99.90
53053;DHT22;38934;52.690;6.184;2024-01-11T04:30:07;-6.60;99.90
53053;DHT22;38934;52.690;6.184;2024-01-11T04:32:32;-6.60;99.90
53053;DHT22;38934;52.690;6.184;2024-01-11T04:34:58;-6.60;99.90
53053;DHT22;38934;52.690;6.184;2024-01-11T04:37:24;-6.30;99.90
53053;DHT22;38934;52.690;6.184;2024-01-11T04:39:49;-6.60;99.90
53053;DHT22;38934;52.690;6.184;2024-01-11T04:42:15;-6.70;99.90
53053;DHT22;38934;52.690;6.184;2024-01-11T04:44:40;-6.70;99.90
53053;DHT22;38934;52.690;6.184;2024-01-11T04:47:06;-6.70;99.90
53053;DHT22;38934;52.690;6.184;2024-01-11T04:49:33;-6.80;99.90
53053;DHT22;38934;52.690;6.184;2024-01-11T04:51:59;-6.80;99.90
53053;DHT22;38934;52.690;6.184;2024-01-11T04:54:25;-6.70;99.90
53053;DHT22;38934;52.690;6.184;2024-01-11T04:56:50;-6.70;99.90
53053;DHT22;38934;52.690;6.184;2024-01-11T04:59:16;-6.70;99.90
53053;DHT22;38934;52.690;6.184;2024-01-11T05:01:41;-6.70;99.90
53053;DHT22;38934;52.690;6.184;2024-01-11T05:04:08;-6.70;99.90
53053;DHT22;38934;52.690;6.184;2024-01-11T05:06:34;-6.70;99.90
53053;DHT22;38934;52.690;6.184;2024-01-11T05:08:59;-6.70;99.90
53053;DHT22;38934;52.690;6.184;2024-01-11T05:11:25;-6.70;99.90
53053;DHT22;38934;52.690;6.184;2024-01-11T05:13:52;-6.70;99.90
53053;DHT22;38934;52.690;6.184;2024-01-11T05:16:24;-6.70;99.90
53053;DHT22;38934;52.690;6.184;2024-01-11T05:18:51;-6.70;99.90
53053;DHT22;38934;52.690;6.184;2024-01-11T05:21:17;-6.70;99.90
53053;DHT22;38934;52.690;6.184;2024-01-11T05:23:43;-6.60;99.90
53053;DHT22;38934;52.690;6.184;2024-01-11T05:26:14;-6.60;99.90
53053;DHT22;38934;52.690;6.184;2024-01-11T05:28:39;-6.70;99.90
53053;DHT22;38934;52.690;6.184;2024-01-11T05:31:10;-6.70;99.90
53053;DHT22;38934;52.690;6.184;2024-01-11T05:33:36;-6.70;99.90
53053;DHT22;38934;52.690;6.184;2024-01-11T05:36:03;-6.60;99.90
53053;DHT22;38934;52.690;6.184;2024-01-11T05:38:28;-6.60;99.90
53053;DHT22;38934;52.690;6.184;2024-01-11T05:40:54;-6.60;99.90
53053;DHT22;38934;52.690;6.184;2024-01-11T05:43:20;-6.70;99.90
53053;DHT22;38934;52.690;6.184;2024-01-11T05:45:45;-6.60;99.90
53053;DHT22;38934;52.690;6.184;2024-01-11T05:48:11;-6.60;99.90
53053;DHT22;38934;52.690;6.184;2024-01-11T05:50:37;-6.60;99.90
53053;DHT22;38934;52.690;6.184;2024-01-11T05:53:03;-6.50;99.90
53053;DHT22;38934;52.690;6.184;2024-01-11T05:55:28;-6.50;99.90
53053;DHT22;38934;52.690;6.184;2024-01-11T05:57:54;-6.50;99.90
53053;DHT22;38934;52.690;6.184;2024-01-11T06:00:20;-6.50;99.90
53053;DHT22;38934;52.690;6.184;2024-01-11T06:02:45;-6.50;99.90
53053;DHT22;38934;52.690;6.184;2024-01-11T06:05:11;-6.50;99.90
53053;DHT22;38934;52.690;6.184;2024-01-11T06:07:38;-6.50;99.90
53053;DHT22;38934;52.690;6.184;2024-01-11T06:10:04;-6.50;99.90
53053;DHT22;38934;52.690;6.184;2024-01-11T06:12:32;-6.50;99.90
53053;DHT22;38934;52.690;6.184;2024-01-11T06:14:58;-6.50;99.90
53053;DHT22;38934;52.690;6.184;2024-01-11T06:17:24;-6.40;99.90
53053;DHT22;38934;52.690;6.184;2024-01-11T06:19:50;-6.50;99.90
53053;DHT22;38934;52.690;6.184;2024-01-11T06:22:15;-6.50;99.90
53053;DHT22;38934;52.690;6.184;2024-01-11T06:24:41;-6.50;99.90
53053;DHT22;38934;52.690;6.184;2024-01-11T06:27:07;-6.60;99.90
53053;DHT22;38934;52.690;6.184;2024-01-11T06:29:32;-6.60;99.90
53053;DHT22;38934;52.690;6.184;2024-01-11T06:31:58;-6.60;99.90
53053;DHT22;38934;52.690;6.184;2024-01-11T06:34:24;-6.60;99.90
53053;DHT22;38934;52.690;6.184;2024-01-11T06:36:49;-6.50;99.90
53053;DHT22;38934;52.690;6.184;2024-01-11T06:39:15;-6.50;99.90
53053;DHT22;38934;52.690;6.184;2024-01-11T06:41:41;-6.50;99.90
53053;DHT22;38934;52.690;6.184;2024-01-11T06:44:06;-6.30;99.90
53053;DHT22;38934;52.690;6.184;2024-01-11T06:46:32;-6.30;99.90
53053;DHT22;38934;52.690;6.184;2024-01-11T06:48:57;-6.20;99.90
53053;DHT22;38934;52.690;6.184;2024-01-11T06:51:23;-6.10;99.90
53053;DHT22;38934;52.690;6.184;2024-01-11T06:53:49;-6.00;99.90
53053;DHT22;38934;52.690;6.184;2024-01-11T06:56:16;-5.90;99.90
53053;DHT22;38934;52.690;6.184;2024-01-11T06:58:43;-5.80;99.90
53053;DHT22;38934;52.690;6.184;2024-01-11T07:01:09;-5.70;99.90
53053;DHT22;38934;52.690;6.184;2024-01-11T07:03:34;-5.60;99.90
53053;DHT22;38934;52.690;6.184;2024-01-11T07:06:00;-5.50;99.90
53053;DHT22;38934;52.690;6.184;2024-01-11T07:08:26;-5.40;99.90
53053;DHT22;38934;52.690;6.184;2024-01-11T07:10:51;-5.00;99.90
53053;DHT22;38934;52.690;6.184;2024-01-11T07:13:17;-5.30;99.90
53053;DHT22;38934;52.690;6.184;2024-01-11T07:15:43;-5.20;99.90
53053;DHT22;38934;52.690;6.184;2024-01-11T07:18:09;-5.10;99.90
53053;DHT22;38934;52.690;6.184;2024-01-11T07:20:34;-5.00;99.90
53053;DHT22;38934;52.690;6.184;2024-01-11T07:23:00;-4.90;99.90
53053;DHT22;38934;52.690;6.184;2024-01-11T07:25:26;-5.00;99.90
53053;DHT22;38934;52.690;6.184;2024-01-11T07:27:51;-4.90;99.90
53053;DHT22;38934;52.690;6.184;2024-01-11T07:30:17;-4.90;99.90
53053;DHT22;38934;52.690;6.184;2024-01-11T07:32:46;-4.80;99.90
53053;DHT22;38934;52.690;6.184;2024-01-11T07:35:12;-4.70;99.90
53053;DHT22;38934;52.690;6.184;2024-01-11T07:37:38;-4.70;99.90
53053;DHT22;38934;52.690;6.184;2024-01-11T07:40:05;-4.60;99.90
53053;DHT22;38934;52.690;6.184;2024-01-11T07:42:39;-4.50;99.90
53053;DHT22;38934;52.690;6.184;2024-01-11T07:45:05;-4.50;99.90
53053;DHT22;38934;52.690;6.184;2024-01-11T07:47:31;-4.50;99.90
53053;DHT22;38934;52.690;6.184;2024-01-11T07:49:57;-4.40;99.90
53053;DHT22;38934;52.690;6.184;2024-01-11T07:52:23;-4.40;99.90
53053;DHT22;38934;52.690;6.184;2024-01-11T07:54:48;-4.40;99.90
53053;DHT22;38934;52.690;6.184;2024-01-11T07:57:14;-4.30;99.90
53053;DHT22;38934;52.690;6.184;2024-01-11T07:59:39;-4.30;99.90
53053;DHT22;38934;52.690;6.184;2024-01-11T08:02:06;-4.20;99.90
53053;DHT22;38934;52.690;6.184;2024-01-11T08:04:31;-4.20;99.90
53053;DHT22;38934;52.690;6.184;2024-01-11T08:06:57;-4.10;99.90
53053;DHT22;38934;52.690;6.184;2024-01-11T08:09:27;-4.10;99.90
53053;DHT22;38934;52.690;6.184;2024-01-11T08:11:53;-4.00;99.90
53053;DHT22;38934;52.690;6.184;2024-01-11T08:14:21;-4.00;99.90
53053;DHT22;38934;52.690;6.184;2024-01-11T08:16:46;-3.90;99.90
53053;DHT22;38934;52.690;6.184;2024-01-11T08:19:12;-3.80;99.90
53053;DHT22;38934;52.690;6.184;2024-01-11T08:21:41;-3.80;99.90
53053;DHT22;38934;52.690;6.184;2024-01-11T08:24:07;-3.70;99.90
53053;DHT22;38934;52.690;6.184;2024-01-11T08:26:33;-3.60;99.90
53053;DHT22;38934;52.690;6.184;2024-01-11T08:28:59;-3.60;99.90
53053;DHT22;38934;52.690;6.184;2024-01-11T08:31:25;-3.60;99.90
53053;DHT22;38934;52.690;6.184;2024-01-11T08:33:51;-3.50;99.90
53053;DHT22;38934;52.690;6.184;2024-01-11T08:36:16;-3.50;99.90
53053;DHT22;38934;52.690;6.184;2024-01-11T08:38:42;-3.40;99.90
53053;DHT22;38934;52.690;6.184;2024-01-11T08:41:09;-3.30;99.90
53053;DHT22;38934;52.690;6.184;2024-01-11T08:43:34;-3.30;99.90
53053;DHT22;38934;52.690;6.184;2024-01-11T08:46:00;-3.30;99.90
53053;DHT22;38934;52.690;6.184;2024-01-11T08:48:27;-3.20;99.90
53053;DHT22;38934;52.690;6.184;2024-01-11T08:50:54;-3.10;99.90
53053;DHT22;38934;52.690;6.184;2024-01-11T08:53:19;-3.10;99.90
53053;DHT22;38934;52.690;6.184;2024-01-11T08:55:45;-3.00;99.90
53053;DHT22;38934;52.690;6.184;2024-01-11T08:58:11;-3.00;99.90
53053;DHT22;38934;52.690;6.184;2024-01-11T09:00:37;-2.30;99.90
53053;DHT22;38934;52.690;6.184;2024-01-11T09:03:03;-2.90;99.90
53053;DHT22;38934;52.690;6.184;2024-01-11T09:05:29;-2.80;99.90
53053;DHT22;38934;52.690;6.184;2024-01-11T09:07:55;-2.80;99.90
53053;DHT22;38934;52.690;6.184;2024-01-11T09:10:21;-2.70;99.90
53053;DHT22;38934;52.690;6.184;2024-01-11T09:12:46;-2.70;99.90
53053;DHT22;38934;52.690;6.184;2024-01-11T09:15:12;-2.60;99.90
53053;DHT22;38934;52.690;6.184;2024-01-11T09:17:38;-2.60;99.90
53053;DHT22;38934;52.690;6.184;2024-01-11T09:20:04;-2.50;99.90
53053;DHT22;38934;52.690;6.184;2024-01-11T09:22:30;-2.40;99.90
53053;DHT22;38934;52.690;6.184;2024-01-11T09:24:55;-2.40;99.90
53053;DHT22;38934;52.690;6.184;2024-01-11T09:27:21;-2.30;99.90
53053;DHT22;38934;52.690;6.184;2024-01-11T09:29:47;-2.30;99.90
53053;DHT22;38934;52.690;6.184;2024-01-11T09:32:13;-2.20;99.90
53053;DHT22;38934;52.690;6.184;2024-01-11T09:34:39;-2.20;99.90
53053;DHT22;38934;52.690;6.184;2024-01-11T09:37:05;-2.10;99.90
53053;DHT22;38934;52.690;6.184;2024-01-11T09:39:30;-2.10;99.90
53053;DHT22;38934;52.690;6.184;2024-01-11T09:42:06;-2.00;99.90
53053;DHT22;38934;52.690;6.184;2024-01-11T09:44:33;-2.00;99.90
53053;DHT22;38934;52.690;6.184;2024-01-11T09:47:00;-1.90;99.90
53053;DHT22;38934;52.690;6.184;2024-01-11T09:49:27;-1.90;99.90
53053;DHT22;38934;52.690;6.184;2024-01-11T09:51:54;-1.80;99.90
53053;DHT22;38934;52.690;6.184;2024-01-11T09:54:23;-1.70;99.90
53053;DHT22;38934;52.690;6.184;2024-01-11T09:56:50;-1.70;99.90
53053;DHT22;38934;52.690;6.184;2024-01-11T09:59:20;-1.60;99.90
53053;DHT22;38934;52.690;6.184;2024-01-11T10:01:50;-1.60;99.90
53053;DHT22;38934;52.690;6.184;2024-01-11T10:04:16;-1.50;99.90
53053;DHT22;38934;52.690;6.184;2024-01-11T10:06:43;-1.50;99.90
53053;DHT22;38934;52.690;6.184;2024-01-11T10:09:09;-1.40;99.90
53053;DHT22;38934;52.690;6.184;2024-01-11T10:11:34;-1.40;99.90
53053;DHT22;38934;52.690;6.184;2024-01-11T10:14:00;-1.30;99.90
53053;DHT22;38934;52.690;6.184;2024-01-11T10:16:28;-1.30;99.90
53053;DHT22;38934;52.690;6.184;2024-01-11T10:18:57;-1.20;99.90
53053;DHT22;38934;52.690;6.184;2024-01-11T10:21:23;-1.20;99.90
53053;DHT22;38934;52.690;6.184;2024-01-11T10:23:49;-1.10;99.90
53053;DHT22;38934;52.690;6.184;2024-01-11T10:26:16;-1.10;99.90
53053;DHT22;38934;52.690;6.184;2024-01-11T10:28:45;-1.00;99.90
53053;DHT22;38934;52.690;6.184;2024-01-11T10:31:11;-0.90;99.90
53053;DHT22;38934;52.690;6.184;2024-01-11T10:33:37;-0.80;99.90
53053;DHT22;38934;52.690;6.184;2024-01-11T10:36:03;-0.80;99.90
53053;DHT22;38934;52.690;6.184;2024-01-11T10:38:30;-0.70;99.90
53053;DHT22;38934;52.690;6.184;2024-01-11T10:40:59;-0.70;99.90
53053;DHT22;38934;52.690;6.184;2024-01-11T10:43:27;-0.60;99.90
53053;DHT22;38934;52.690;6.184;2024-01-11T10:45:56;-0.50;99.90
53053;DHT22;38934;52.690;6.184;2024-01-11T10:48:25;-0.50;99.90
53053;DHT22;38934;52.690;6.184;2024-01-11T10:51:00;-0.40;99.90
53053;DHT22;38934;52.690;6.184;2024-01-11T10:53:45;-0.40;99.90
53053;DHT22;38934;52.690;6.184;2024-01-11T10:56:15;1.30;99.90
53053;DHT22;38934;52.690;6.184;2024-01-11T10:58:44;-0.30;99.90
53053;DHT22;38934;52.690;6.184;2024-01-11T11:01:11;-0.20;99.90
53053;DHT22;38934;52.690;6.184;2024-01-11T11:03:38;-0.10;99.90
53053;DHT22;38934;52.690;6.184;2024-01-11T11:06:05;-0.10;99.90
53053;DHT22;38934;52.690;6.184;2024-01-11T11:08:32;0.00;99.90
53053;DHT22;38934;52.690;6.184;2024-01-11T11:11:00;0.80;99.90
53053;DHT22;38934;52.690;6.184;2024-01-11T11:13:26;0.10;99.90
53053;DHT22;38934;52.690;6.184;2024-01-11T11:15:53;0.10;99.90
53053;DHT22;38934;52.690;6.184;2024-01-11T11:18:19;0.20;99.90
53053;DHT22;38934;52.690;6.184;2024-01-11T11:20:46;0.20;99.90
53053;DHT22;38934;52.690;6.184;2024-01-11T11:23:15;0.20;99.90
53053;DHT22;38934;52.690;6.184;2024-01-11T11:25:42;0.20;99.90
53053;DHT22;38934;52.690;6.184;2024-01-11T11:28:12;0.20;99.90
53053;DHT22;38934;52.690;6.184;2024-01-11T11:30:40;0.30;99.90
53053;DHT22;38934;52.690;6.184;2024-01-11T11:35:49;0.30;99.90
53053;DHT22;38934;52.690;6.184;2024-01-11T11:38:18;0.40;99.90
53053;DHT22;38934;52.690;6.184;2024-01-11T11:40:46;0.40;99.90
53053;DHT22;38934;52.690;6.184;2024-01-11T11:43:15;0.40;99.90
53053;DHT22;38934;52.690;6.184;2024-01-11T11:45:42;0.50;99.90
53053;DHT22;38934;52.690;6.184;2024-01-11T11:51:13;0.60;99.90
53053;DHT22;38934;52.690;6.184;2024-01-11T11:53:40;0.60;99.90
53053;DHT22;38934;52.690;6.184;2024-01-11T11:56:07;0.60;99.90
53053;DHT22;38934;52.690;6.184;2024-01-11T11:58:35;0.60;99.90
53053;DHT22;38934;52.690;6.184;2024-01-11T12:01:01;0.70;99.90
53053;DHT22;38934;52.690;6.184;2024-01-11T12:03:32;0.70;99.90
53053;DHT22;38934;52.690;6.184;2024-01-11T12:06:00;0.70;99.90
53053;DHT22;38934;52.690;6.184;2024-01-11T12:08:26;0.70;99.90
53053;DHT22;38934;52.690;6.184;2024-01-11T12:10:52;0.80;99.90
53053;DHT22;38934;52.690;6.184;2024-01-11T12:13:18;0.80;99.90
53053;DHT22;38934;52.690;6.184;2024-01-11T12:15:44;0.80;99.90
53053;DHT22;38934;52.690;6.184;2024-01-11T12:18:10;0.90;99.90
53053;DHT22;38934;52.690;6.184;2024-01-11T12:20:35;0.80;99.90
53053;DHT22;38934;52.690;6.184;2024-01-11T12:23:02;0.90;99.90
53053;DHT22;38934;52.690;6.184;2024-01-11T12:25:28;0.90;99.90
53053;DHT22;38934;52.690;6.184;2024-01-11T12:27:55;0.90;99.90
53053;DHT22;38934;52.690;6.184;2024-01-11T12:30:25;0.90;99.90
53053;DHT22;38934;52.690;6.184;2024-01-11T12:32:51;1.00;99.90
53053;DHT22;38934;52.690;6.184;2024-01-11T12:35:17;1.00;99.90
53053;DHT22;38934;52.690;6.184;2024-01-11T12:37:59;1.00;99.90
53053;DHT22;38934;52.690;6.184;2024-01-11T12:40:25;1.10;99.90
53053;DHT22;38934;52.690;6.184;2024-01-11T12:42:53;1.10;99.90
53053;DHT22;38934;52.690;6.184;2024-01-11T12:45:19;1.10;99.90
53053;DHT22;38934;52.690;6.184;2024-01-11T12:47:45;1.10;99.90
53053;DHT22;38934;52.690;6.184;2024-01-11T12:50:12;1.20;99.90
53053;DHT22;38934;52.690;6.184;2024-01-11T12:52:38;1.10;99.90
53053;DHT22;38934;52.690;6.184;2024-01-11T12:55:04;1.20;99.90
53053;DHT22;38934;52.690;6.184;2024-01-11T12:57:30;1.20;99.90
53053;DHT22;38934;52.690;6.184;2024-01-11T13:00:12;1.20;99.90
53053;DHT22;38934;52.690;6.184;2024-01-11T13:02:39;1.10;99.90
53053;DHT22;38934;52.690;6.184;2024-01-11T13:05:05;1.10;99.90
53053;DHT22;38934;52.690;6.184;2024-01-11T13:07:32;1.10;99.90
53053;DHT22;38934;52.690;6.184;2024-01-11T13:09:59;1.10;99.90
53053;DHT22;38934;52.690;6.184;2024-01-11T13:12:24;1.10;99.90
53053;DHT22;38934;52.690;6.184;2024-01-11T13:14:50;1.10;99.90
53053;DHT22;38934;52.690;6.184;2024-01-11T13:17:18;1.10;99.90
53053;DHT22;38934;52.690;6.184;2024-01-11T13:19:44;1.10;99.90
53053;DHT22;38934;52.690;6.184;2024-01-11T13:22:10;1.10;99.90
53053;DHT22;38934;52.690;6.184;2024-01-11T13:24:36;1.70;99.90
53053;DHT22;38934;52.690;6.184;2024-01-11T13:27:01;1.20;99.90
53053;DHT22;38934;52.690;6.184;2024-01-11T13:29:27;1.20;99.90
53053;DHT22;38934;52.690;6.184;2024-01-11T13:31:53;1.20;99.90
53053;DHT22;38934;52.690;6.184;2024-01-11T13:34:18;1.20;99.90
53053;DHT22;38934;52.690;6.184;2024-01-11T13:36:44;1.20;99.90
53053;DHT22;38934;52.690;6.184;2024-01-11T13:39:10;1.20;99.90
53053;DHT22;38934;52.690;6.184;2024-01-11T13:41:36;1.20;99.90
53053;DHT22;38934;52.690;6.184;2024-01-11T13:44:02;1.20;99.90
53053;DHT22;38934;52.690;6.184;2024-01-11T13:46:31;1.20;99.90
53053;DHT22;38934;52.690;6.184;2024-01-11T13:48:57;1.20;99.90
53053;DHT22;38934;52.690;6.184;2024-01-11T13:51:23;1.20;99.90
53053;DHT22;38934;52.690;6.184;2024-01-11T13:53:48;1.20;99.90
53053;DHT22;38934;52.690;6.184;2024-01-11T13:56:14;1.20;99.90
53053;DHT22;38934;52.690;6.184;2024-01-11T13:58:40;1.20;99.90
53053;DHT22;38934;52.690;6.184;2024-01-11T14:01:06;1.20;99.90
53053;DHT22;38934;52.690;6.184;2024-01-11T14:03:33;1.20;99.90
53053;DHT22;38934;52.690;6.184;2024-01-11T14:05:59;1.20;99.90
53053;DHT22;38934;52.690;6.184;2024-01-11T14:08:25;1.20;99.90
53053;DHT22;38934;52.690;6.184;2024-01-11T14:10:51;1.20;99.90
53053;DHT22;38934;52.690;6.184;2024-01-11T14:13:17;1.10;99.90
53053;DHT22;38934;52.690;6.184;2024-01-11T14:15:43;1.10;99.90
53053;DHT22;38934;52.690;6.184;2024-01-11T14:18:08;1.10;99.90
53053;DHT22;38934;52.690;6.184;2024-01-11T14:20:35;1.10;99.90
53053;DHT22;38934;52.690;6.184;2024-01-11T14:23:00;1.00;99.90
53053;DHT22;38934;52.690;6.184;2024-01-11T14:25:26;1.00;99.90
53053;DHT22;38934;52.690;6.184;2024-01-11T14:27:52;1.10;99.90
53053;DHT22;38934;52.690;6.184;2024-01-11T14:30:18;1.30;99.90
53053;DHT22;38934;52.690;6.184;2024-01-11T14:32:44;1.00;99.90
53053;DHT22;38934;52.690;6.184;2024-01-11T14:35:11;1.00;99.90
53053;DHT22;38934;52.690;6.184;2024-01-11T14:37:37;0.90;99.90
53053;DHT22;38934;52.690;6.184;2024-01-11T14:40:07;1.00;99.90
53053;DHT22;38934;52.690;6.184;2024-01-11T14:42:36;0.90;99.90
53053;DHT22;38934;52.690;6.184;2024-01-11T14:45:02;1.00;99.90
53053;DHT22;38934;52.690;6.184;2024-01-11T14:47:29;0.90;99.90
53053;DHT22;38934;52.690;6.184;2024-01-11T14:49:55;0.90;99.90
53053;DHT22;38934;52.690;6.184;2024-01-11T14:52:20;0.90;99.90
53053;DHT22;38934;52.690;6.184;2024-01-11T14:54:46;0.90;99.90
53053;DHT22;38934;52.690;6.184;2024-01-11T14:57:15;0.90;99.90
53053;DHT22;38934;52.690;6.184;2024-01-11T14:59:42;0.90;99.90
53053;DHT22;38934;52.690;6.184;2024-01-11T15:02:07;0.90;99.90
53053;DHT22;38934;52.690;6.184;2024-01-11T15:04:35;0.90;99.90
53053;DHT22;38934;52.690;6.184;2024-01-11T15:07:00;0.90;99.90
53053;DHT22;38934;52.690;6.184;2024-01-11T15:09:26;0.90;99.90
53053;DHT22;38934;52.690;6.184;2024-01-11T15:11:52;0.90;99.90
53053;DHT22;38934;52.690;6.184;2024-01-11T15:14:18;0.90;99.90
53053;DHT22;38934;52.690;6.184;2024-01-11T15:16:44;0.90;99.90
53053;DHT22;38934;52.690;6.184;2024-01-11T15:19:13;1.10;99.90
53053;DHT22;38934;52.690;6.184;2024-01-11T15:21:39;0.80;99.90
53053;DHT22;38934;52.690;6.184;2024-01-11T15:24:05;0.80;99.90
53053;DHT22;38934;52.690;6.184;2024-01-11T15:26:31;0.80;99.90
53053;DHT22;38934;52.690;6.184;2024-01-11T15:28:57;0.80;99.90
53053;DHT22;38934;52.690;6.184;2024-01-11T15:31:23;0.80;99.90
53053;DHT22;38934;52.690;6.184;2024-01-11T15:33:51;0.80;99.90
53053;DHT22;38934;52.690;6.184;2024-01-11T15:36:16;0.80;99.90